Time;durP1;ratioP1;P1;durP2;ratioP2;P2;SDS_P1;SDS_P2;PMS_P1;PMS_P2;Temp;Humidity;BMP_temperature;BMP_pressure;BME280_temperature;BME280_humidity;BME280_pressure;Samples;Min_cycle;Max_cycle;Signal;HPM_P1;HPM_P2
2022/07/25 00:00:39;;;;;;;0.35;0.28;;;;;;;15.61;100.00;98906.94;7396540;19;20455;-58
2022/07/25 00:03:05;;;;;;;1.95;0.57;;;;;;;15.66;100.00;98908.88;7392660;19;20467;-58
2022/07/25 00:05:31;;;;;;;2.05;0.73;;;;;;;15.68;100.00;98906.34;7391987;19;20441;-58
2022/07/25 00:07:57;;;;;;;3.22;0.50;;;;;;;15.71;100.00;98910.88;7392020;19;20089;-59
2022/07/25 00:10:24;;;;;;;1.33;0.50;;;;;;;15.76;100.00;98908.00;7391796;19;20011;-58
2022/07/25 00:12:50;;;;;;;7.80;0.98;;;;;;;15.83;100.00;98910.16;7391125;19;20010;-59
2022/07/25 00:15:16;;;;;;;1.38;0.98;;;;;;;15.85;100.00;98901.22;7390718;19;20076;-59
2022/07/25 00:17:42;;;;;;;3.05;0.65;;;;;;;15.89;100.00;98905.22;7394808;19;20019;-59
2022/07/25 00:20:09;;;;;;;1.88;0.40;;;;;;;15.95;100.00;98913.56;7391518;19;20018;-58
2022/07/25 00:22:35;;;;;;;1.70;0.35;;;;;;;15.98;100.00;98914.53;7390479;19;20014;-58
2022/07/25 00:25:04;;;;;;;0.68;0.38;;;;;;;16.00;100.00;98921.13;7391448;19;20066;-58
2022/07/25 00:27:30;;;;;;;1.00;0.22;;;;;;;16.04;100.00;98932.03;7395564;19;20010;-58
2022/07/25 00:29:56;;;;;;;1.52;0.25;;;;;;;16.04;100.00;98932.03;7390696;19;20015;-58
2022/07/25 00:32:22;;;;;;;1.10;0.40;;;;;;;16.05;100.00;98923.06;7391692;19;20107;-58
2022/07/25 00:34:49;;;;;;;1.65;0.40;;;;;;;16.06;100.00;98913.38;7390437;19;20006;-58
2022/07/25 00:37:15;;;;;;;0.88;0.20;;;;;;;16.12;100.00;98911.22;7394557;19;20485;-56
2022/07/25 00:39:41;;;;;;;0.65;0.52;;;;;;;16.08;100.00;98907.97;7389579;19;20644;-57
2022/07/25 00:42:07;;;;;;;1.08;0.75;;;;;;;16.12;100.00;98911.22;7394318;19;20015;-57
2022/07/25 00:44:33;;;;;;;0.95;0.20;;;;;;;16.12;100.00;98902.03;7390309;19;20041;-57
2022/07/25 00:46:59;;;;;;;1.88;0.75;;;;;;;16.15;100.00;98893.31;7392114;19;20006;-57
2022/07/25 00:49:26;;;;;;;0.60;0.15;;;;;;;16.21;100.00;98901.63;7390927;19;20401;-56
2022/07/25 00:51:53;;;;;;;4.43;0.57;;;;;;;16.16;100.00;98894.81;7388902;19;20463;-56
2022/07/25 00:54:20;;;;;;;1.75;0.73;;;;;;;16.18;100.00;98895.03;7390157;19;20019;-56
2022/07/25 00:56:47;;;;;;;0.55;0.20;;;;;;;16.16;100.00;98889.19;7393108;19;20360;-57
2022/07/25 00:59:13;;;;;;;3.30;1.23;;;;;;;16.19;100.00;98899.34;7391446;19;20022;-57
2022/07/25 01:01:40;;;;;;;2.22;0.40;;;;;;;16.21;100.00;98896.78;7391273;19;20034;-56
2022/07/25 01:04:06;;;;;;;1.35;0.45;;;;;;;16.19;100.00;98895.78;7391435;19;20014;-57
2022/07/25 01:06:32;;;;;;;0.90;0.52;;;;;;;16.18;100.00;98905.50;7393119;19;20566;-57
2022/07/25 01:09:00;;;;;;;1.00;0.45;;;;;;;16.18;100.00;98891.44;7390904;19;20078;-57
2022/07/25 01:11:26;;;;;;;1.55;0.43;;;;;;;16.18;100.00;98891.44;7390715;19;20018;-57
2022/07/25 01:13:52;;;;;;;1.13;0.52;;;;;;;16.17;100.00;98901.94;7390352;19;20519;-58
2022/07/25 01:16:18;;;;;;;3.75;0.68;;;;;;;16.21;100.00;98896.00;7391341;19;20014;-58
2022/07/25 01:18:44;;;;;;;3.30;0.40;;;;;;;16.18;100.00;98892.22;7389948;19;20025;-58
2022/07/25 01:21:11;;;;;;;3.45;0.35;;;;;;;16.17;100.00;98892.75;7389808;19;20587;-57
2022/07/25 01:23:37;;;;;;;5.88;1.27;;;;;;;16.13;100.00;98883.91;7388141;19;20011;-57
2022/07/25 01:26:03;;;;;;;6.85;0.40;;;;;;;16.11;100.00;98892.09;7390537;19;20765;-58
2022/07/25 01:28:29;;;;;;;1.83;0.30;;;;;;;16.08;100.00;98899.53;7390265;19;20022;-57
2022/07/25 01:30:55;;;;;;;5.32;0.52;;;;;;;16.08;100.00;98885.50;7388528;19;20017;-58
2022/07/25 01:33:22;;;;;;;2.78;0.40;;;;;;;16.09;100.00;98886.25;7390093;19;20007;-58
2022/07/25 01:35:48;;;;;;;2.22;0.82;;;;;;;16.05;100.00;98883.03;7389884;19;20020;-58
2022/07/25 01:38:15;;;;;;;0.85;0.52;;;;;;;16.03;100.00;98886.34;7389288;19;20515;-57
2022/07/25 01:40:42;;;;;;;0.73;0.30;;;;;;;16.02;100.00;98884.84;7389935;19;20010;-59
2022/07/25 01:43:09;;;;;;;2.55;0.32;;;;;;;15.95;100.00;98865.81;7388083;19;20017;-58
2022/07/25 01:45:36;;;;;;;2.42;0.73;;;;;;;15.87;100.00;98862.88;7389142;19;20010;-58
2022/07/25 01:48:03;;;;;;;3.38;1.13;;;;;;;15.78;100.00;98865.34;7387996;19;20509;-58
2022/07/25 01:50:29;;;;;;;4.78;0.55;;;;;;;15.66;100.00;98867.56;7387870;19;20063;-58
2022/07/25 01:52:55;;;;;;;8.50;0.45;;;;;;;15.55;100.00;98858.56;7395585;19;20007;-57
2022/07/25 01:55:21;;;;;;;3.70;0.55;;;;;;;15.53;100.00;98863.94;7396557;19;20019;-57
2022/07/25 01:57:47;;;;;;;1.15;0.10;;;;;;;15.49;100.00;98860.69;7395944;19;20114;-57
2022/07/25 02:00:14;;;;;;;0.75;0.35;;;;;;;15.47;100.00;98868.88;7399063;19;20472;-57
2022/07/25 02:02:42;;;;;;;2.20;0.95;;;;;;;15.48;100.00;98864.78;7396363;19;20034;-59
2022/07/25 02:05:10;;;;;;;1.15;0.47;;;;;;;15.47;100.00;98866.84;7396241;19;20066;-57
2022/07/25 02:07:37;;;;;;;0.63;0.22;;;;;;;15.43;100.00;98868.41;7400653;19;20014;-57
2022/07/25 02:10:05;;;;;;;0.70;0.38;;;;;;;15.43;100.00;98872.00;7394445;19;20058;-57
2022/07/25 02:12:32;;;;;;;3.33;0.63;;;;;;;15.44;100.00;98867.16;7398705;19;20010;-57
2022/07/25 02:14:58;;;;;;;0.45;0.38;;;;;;;15.45;100.00;98860.22;7396050;19;20040;-57
2022/07/25 02:17:25;;;;;;;2.75;0.25;;;;;;;15.48;100.00;98865.56;7399462;19;20018;-58
2022/07/25 02:19:51;;;;;;;1.10;0.10;;;;;;;15.53;100.00;98856.28;7396086;19;20112;-58
2022/07/25 02:22:17;;;;;;;1.08;0.30;;;;;;;15.56;100.00;98841.19;7394810;19;20023;-57
2022/07/25 02:24:44;;;;;;;6.53;0.70;;;;;;;15.60;100.00;98866.13;7395107;19;20395;-57
2022/07/25 02:27:10;;;;;;;1.73;0.32;;;;;;;15.64;100.00;98866.56;7397849;19;20105;-57
2022/07/25 02:29:36;;;;;;;1.08;0.50;;;;;;;15.64;100.00;98858.91;7394945;19;20017;-57
2022/07/25 02:32:02;;;;;;;0.90;0.55;;;;;;;15.63;100.00;98862.25;7392681;19;20015;-58
2022/07/25 02:34:29;;;;;;;2.50;0.15;;;;;;;15.68;100.00;98867.03;7395125;19;20034;-57
2022/07/25 02:36:55;;;;;;;6.40;0.85;;;;;;;15.69;100.00;98854.50;7396150;19;20014;-57
2022/07/25 02:39:21;;;;;;;2.92;0.25;;;;;;;15.71;100.00;98849.09;7393629;19;20033;-57
2022/07/25 02:41:47;;;;;;;1.25;0.47;;;;;;;15.66;100.00;98859.13;7398535;19;20010;-58
2022/07/25 02:44:13;;;;;;;5.18;0.20;;;;;;;15.64;100.00;98852.53;7393413;19;20039;-57
2022/07/25 02:46:40;;;;;;;1.88;0.30;;;;;;;15.56;100.00;98848.84;7396897;19;20022;-57
2022/07/25 02:49:06;;;;;;;1.35;0.15;;;;;;;15.52;100.00;98854.78;7394714;19;20029;-58
2022/07/25 02:51:32;;;;;;;0.68;0.10;;;;;;;15.52;100.00;98851.22;7392583;19;20015;-57
2022/07/25 02:53:58;;;;;;;3.83;0.40;;;;;;;15.50;100.00;98857.34;7394721;19;20015;-58
2022/07/25 02:56:25;;;;;;;1.83;0.15;;;;;;;15.47;100.00;98832.41;7396470;19;20023;-57
2022/07/25 02:58:52;;;;;;;1.15;0.25;;;;;;;15.43;100.00;98843.16;7394500;19;20064;-57
2022/07/25 03:01:18;;;;;;;0.30;0.13;;;;;;;15.43;100.00;98834.72;7394411;19;20014;-57
2022/07/25 03:03:44;;;;;;;2.67;1.00;;;;;;;15.42;100.00;98836.03;7393562;19;20344;-57
2022/07/25 03:06:10;;;;;;;0.40;0.13;;;;;;;15.44;100.00;98844.69;7393969;19;20652;-57
2022/07/25 03:08:36;;;;;;;2.63;0.75;;;;;;;15.43;100.00;98840.34;7394222;19;20041;-57
2022/07/25 03:11:03;;;;;;;1.85;0.93;;;;;;;15.36;100.00;98836.09;7395192;19;20356;-58
2022/07/25 03:13:30;;;;;;;0.73;0.50;;;;;;;15.34;100.00;98830.28;7393733;19;20025;-58
2022/07/25 03:15:56;;;;;;;6.72;0.73;;;;;;;15.35;100.00;98828.22;7395072;19;20022;-57
2022/07/25 03:18:22;;;;;;;0.57;0.35;;;;;;;15.39;100.00;98831.47;7393610;19;20006;-57
2022/07/25 03:20:48;;;;;;;2.30;1.13;;;;;;;15.41;100.00;98829.66;7393800;19;20603;-57
2022/07/25 03:23:14;;;;;;;0.73;0.22;;;;;;;15.39;100.00;98837.09;7393932;19;20019;-57
2022/07/25 03:25:40;;;;;;;2.47;0.30;;;;;;;15.40;100.00;98830.19;7393356;19;20035;-57
2022/07/25 03:28:06;;;;;;;0.20;0.20;;;;;;;15.39;100.00;98828.69;7393381;19;20011;-57
2022/07/25 03:30:33;;;;;;;6.43;0.40;;;;;;;15.38;100.00;98827.16;7392278;19;20011;-57
2022/07/25 03:32:59;;;;;;;5.72;0.45;;;;;;;15.38;100.00;98832.75;7393163;19;20026;-57
2022/07/25 03:35:25;;;;;;;1.25;0.80;;;;;;;15.37;100.00;98825.66;7393475;19;20039;-57
2022/07/25 03:37:52;;;;;;;0.73;0.28;;;;;;;15.32;100.00;98824.44;7392162;19;20010;-57
2022/07/25 03:40:19;;;;;;;0.98;0.40;;;;;;;15.31;100.00;98816.56;7393101;19;20007;-57
2022/07/25 03:42:45;;;;;;;1.15;0.45;;;;;;;15.30;100.00;98807.38;7389492;19;20447;-57
2022/07/25 03:45:11;;;;;;;9.85;0.55;;;;;;;15.32;100.00;98806.84;7391732;19;20019;-57
2022/07/25 03:47:37;;;;;;;4.43;0.77;;;;;;;15.29;100.00;98800.25;7396863;19;20007;-57
2022/07/25 03:50:04;;;;;;;1.88;0.43;;;;;;;15.28;100.00;98800.78;7392290;19;20015;-57
2022/07/25 03:52:30;;;;;;;0.25;0.08;;;;;;;15.35;100.00;98800.94;7392786;19;20014;-58
2022/07/25 03:54:56;;;;;;;6.13;0.17;;;;;;;15.37;100.00;98803.19;7391356;19;20007;-58
2022/07/25 03:57:22;;;;;;;6.68;0.95;;;;;;;15.22;100.00;98814.16;7395644;19;20497;-57
2022/07/25 03:59:48;;;;;;;0.20;0.10;;;;;;;15.19;100.00;98797.09;7394361;19;20006;-57
2022/07/25 04:02:15;;;;;;;3.95;1.10;;;;;;;15.18;100.00;98803.25;7389817;19;20377;-57
2022/07/25 04:04:41;;;;;;;0.30;0.10;;;;;;;15.21;100.00;98802.16;7390776;19;20011;-57
2022/07/25 04:07:07;;;;;;;4.95;1.40;;;;;;;15.18;100.00;98798.38;7396096;19;20010;-58
2022/07/25 04:09:33;;;;;;;5.50;0.30;;;;;;;15.16;100.00;98795.34;7392721;19;20478;-57
2022/07/25 04:11:59;;;;;;;0.70;0.30;;;;;;;15.17;100.00;98796.88;7394233;19;20602;-57
2022/07/25 04:14:25;;;;;;;0.95;0.30;;;;;;;15.17;100.00;98791.25;7388732;19;20010;-57
2022/07/25 04:16:51;;;;;;;3.13;0.47;;;;;;;15.15;100.00;98782.63;7395239;19;20050;-57
2022/07/25 04:19:18;;;;;;;1.83;0.80;;;;;;;15.14;100.00;98781.09;7390756;19;20011;-57
2022/07/25 04:21:44;;;;;;;1.27;0.40;;;;;;;15.11;100.00;98781.41;7391438;19;20006;-57
2022/07/25 04:24:10;;;;;;;0.55;0.32;;;;;;;15.09;100.00;98803.63;7391294;19;20018;-57
2022/07/25 04:26:36;;;;;;;1.08;0.47;;;;;;;15.08;100.00;98811.28;7392639;19;20006;-57
2022/07/25 04:29:02;;;;;;;4.82;0.47;;;;;;;15.09;100.00;98804.38;7391194;19;20015;-57
2022/07/25 04:31:29;;;;;;;0.77;0.47;;;;;;;15.07;100.00;98820.97;7390012;19;20010;-57
2022/07/25 04:33:55;;;;;;;0.90;0.38;;;;;;;15.10;100.00;98821.94;7390975;19;20347;-57
2022/07/25 04:36:21;;;;;;;0.55;0.38;;;;;;;15.06;100.00;98825.06;7393566;19;20010;-57
2022/07/25 04:38:47;;;;;;;10.98;0.50;;;;;;;15.05;100.00;98834.75;7389207;19;20010;-57
2022/07/25 04:41:13;;;;;;;1.58;0.98;;;;;;;15.06;100.00;98827.88;7391586;19;20038;-57
2022/07/25 04:43:39;;;;;;;1.15;0.40;;;;;;;15.05;100.00;98826.34;7390690;19;20014;-57
2022/07/25 04:46:06;;;;;;;0.50;0.38;;;;;;;15.11;100.00;98827.06;7391518;19;20006;-58
2022/07/25 04:48:32;;;;;;;4.68;0.65;;;;;;;15.15;100.00;98826.72;7390846;19;20010;-57
2022/07/25 04:50:58;;;;;;;0.10;0.08;;;;;;;15.15;100.00;98829.53;7390286;19;20007;-58
2022/07/25 04:53:24;;;;;;;2.17;0.30;;;;;;;15.16;100.00;98829.00;7390580;19;20041;-57
2022/07/25 04:55:51;;;;;;;0.68;0.30;;;;;;;15.13;100.00;98835.69;7390015;19;20110;-57
2022/07/25 04:58:17;;;;;;;2.28;0.70;;;;;;;15.24;100.00;98828.38;7390224;19;20010;-57
2022/07/25 05:00:43;;;;;;;1.15;0.40;;;;;;;15.18;100.00;98834.84;7392954;19;20083;-57
2022/07/25 05:03:10;;;;;;;0.68;0.40;;;;;;;15.24;100.00;98839.63;7390624;19;20019;-58
2022/07/25 05:05:36;;;;;;;6.03;0.17;;;;;;;15.27;100.00;98842.09;7391104;19;20451;-58
2022/07/25 05:08:03;;;;;;;0.32;0.15;;;;;;;15.29;100.00;98841.59;7390936;19;20011;-57
2022/07/25 05:10:29;;;;;;;1.00;0.45;;;;;;;15.29;100.00;98836.72;7389739;19;20079;-57
2022/07/25 05:12:55;;;;;;;0.32;0.30;;;;;;;15.28;100.00;98834.44;7388935;19;20425;-57
2022/07/25 05:15:22;;;;;;;0.57;0.10;;;;;;;15.29;100.00;98831.09;7388229;19;20015;-57
2022/07/25 05:17:48;;;;;;;0.10;0.10;;;;;;;15.24;100.00;98836.81;7390589;19;20073;-57
2022/07/25 05:20:14;;;;;;;0.22;0.13;;;;;;;15.25;100.00;98846.72;7390283;19;20015;-57
2022/07/25 05:22:41;;;;;;;2.88;1.48;;;;;;;15.26;100.00;98842.63;7389770;19;20014;-57
2022/07/25 05:25:09;;;;;;;0.82;0.43;;;;;;;15.29;100.00;98836.72;7389419;19;20617;-56
2022/07/25 05:27:36;;;;;;;0.73;0.13;;;;;;;15.29;100.00;98841.59;7392981;19;20359;-56
2022/07/25 05:30:04;;;;;;;1.23;0.10;;;;;;;15.32;100.00;98841.28;7390139;19;20074;-57
2022/07/25 05:32:30;;;;;;;3.10;0.40;;;;;;;15.37;100.00;98836.88;7389453;19;20015;-57
2022/07/25 05:34:57;;;;;;;0.25;0.25;;;;;;;15.37;100.00;98836.88;7388497;19;20361;-57
2022/07/25 05:37:23;;;;;;;0.52;0.20;;;;;;;15.38;100.00;98843.97;7393476;19;20010;-56
2022/07/25 05:39:49;;;;;;;0.30;0.20;;;;;;;15.38;100.00;98841.94;7389379;19;20475;-56
2022/07/25 05:42:15;;;;;;;1.55;0.15;;;;;;;15.40;100.00;98841.44;7388849;19;20022;-56
2022/07/25 05:44:41;;;;;;;0.73;0.20;;;;;;;15.39;100.00;98842.69;7388779;19;20007;-56
2022/07/25 05:47:11;;;;;;;0.35;0.20;;;;;;;15.44;100.00;98850.31;7393343;19;20011;-57
2022/07/25 05:49:37;;;;;;;0.85;0.35;;;;;;;15.43;100.00;98840.34;7389431;19;20015;-57
2022/07/25 05:52:04;;;;;;;2.22;0.50;;;;;;;15.43;100.00;98846.75;7387428;19;20024;-58
2022/07/25 05:54:32;;;;;;;1.15;0.35;;;;;;;15.41;100.00;98842.94;7388791;19;20032;-58
2022/07/25 05:56:59;;;;;;;0.38;0.10;;;;;;;15.44;100.00;98847.50;7391446;19;20010;-57
2022/07/25 05:59:26;;;;;;;0.20;0.10;;;;;;;15.42;100.00;98841.66;7390491;19;20014;-58
2022/07/25 06:01:52;;;;;;;0.63;0.30;;;;;;;15.43;100.00;98851.56;7388990;19;20021;-57
2022/07/25 06:04:18;;;;;;;0.60;0.20;;;;;;;15.41;100.00;98860.53;7389077;19;20003;-58
2022/07/25 06:06:49;;;;;;;1.88;0.55;;;;;;;15.39;100.00;98857.50;7391365;19;20412;-58
2022/07/25 06:09:20;;;;;;;0.20;0.20;;;;;;;15.38;100.00;98855.19;7387293;19;20006;-57
2022/07/25 06:11:48;;;;;;;2.00;0.20;;;;;;;15.36;100.00;98852.94;7389135;19;20022;-58
2022/07/25 06:14:14;;;;;;;0.30;0.28;;;;;;;15.38;100.00;98852.41;7388965;19;20073;-58
2022/07/25 06:16:41;;;;;;;3.80;0.30;;;;;;;15.44;100.00;98859.47;7390585;19;20074;-57
2022/07/25 06:19:07;;;;;;;0.20;0.10;;;;;;;15.53;100.00;98855.50;7388908;19;20468;-57
2022/07/25 06:21:33;;;;;;;0.20;0.15;;;;;;;15.58;100.00;98863.09;7386911;19;20011;-57
2022/07/25 06:24:00;;;;;;;0.00;0.00;;;;;;;15.61;100.00;98864.84;7388173;19;20503;-57
2022/07/25 06:26:26;;;;;;;0.35;0.30;;;;;;;15.65;100.00;98856.88;7389818;19;20103;-57
2022/07/25 06:28:52;;;;;;;0.10;0.10;;;;;;;15.66;100.00;98858.38;7385969;19;20011;-58
2022/07/25 06:31:18;;;;;;;0.30;0.10;;;;;;;15.69;100.00;98862.91;7385971;19;20014;-58
2022/07/25 06:33:45;;;;;;;4.97;0.28;;;;;;;15.76;100.00;98867.91;7387952;19;20014;-57
2022/07/25 06:36:11;;;;;;;0.20;0.20;;;;;;;15.76;100.00;98862.31;7389456;19;20030;-58
2022/07/25 06:38:37;;;;;;;0.57;0.10;;;;;;;15.73;100.00;98863.38;7392567;19;20015;-58
2022/07/25 06:41:03;;;;;;;0.00;0.00;;;;;;;15.76;100.00;98862.31;7397036;19;20014;-58
2022/07/25 06:43:29;;;;;;;0.20;0.20;;;;;;;15.79;100.00;98861.22;7394487;19;20010;-57
2022/07/25 06:45:56;;;;;;;0.52;0.22;;;;;;;15.80;100.00;98873.97;7395580;19;20010;-58
2022/07/25 06:48:23;;;;;;;0.22;0.22;;;;;;;15.80;100.00;98879.59;7392240;19;20471;-58
2022/07/25 06:50:50;;;;;;;0.08;0.00;;;;;;;15.81;100.00;98872.66;7393734;19;20015;-58
2022/07/25 06:53:17;;;;;;;6.10;0.35;;;;;;;15.82;100.00;98882.63;7393913;19;20006;-57
2022/07/25 06:55:44;;;;;;;0.55;0.10;;;;;;;15.79;100.00;98878.06;7395491;19;20003;-59
2022/07/25 06:58:10;;;;;;;1.45;0.28;;;;;;;15.78;100.00;98882.19;7396272;19;20018;-58
2022/07/25 07:00:36;;;;;;;0.38;0.00;;;;;;;15.85;100.00;98884.38;7398129;19;20117;-58
2022/07/25 07:03:03;;;;;;;0.15;0.10;;;;;;;15.84;100.00;98875.19;7395439;19;20403;-59
2022/07/25 07:05:32;;;;;;;0.22;0.20;;;;;;;15.74;100.00;98895.78;7396796;19;20044;-59
2022/07/25 07:08:02;;;;;;;0.63;0.20;;;;;;;15.74;100.00;98895.78;7395410;19;20649;-59
2022/07/25 07:10:29;;;;;;;1.45;0.20;;;;;;;15.83;100.00;98895.38;7394763;19;20014;-59
2022/07/25 07:13:22;;;;;;;2.90;0.85;;;;;;;15.85;100.00;98898.41;7396412;19;20482;-59
2022/07/25 07:15:49;;;;;;;2.65;0.32;;;;;;;15.96;100.00;98905.88;7396257;19;20006;-59
2022/07/25 07:18:17;;;;;;;0.13;0.08;;;;;;;16.03;100.00;98911.63;7396586;19;20014;-59
2022/07/25 07:20:43;;;;;;;0.57;0.43;;;;;;;16.13;100.00;98909.94;7397252;19;20034;-59
2022/07/25 07:23:10;;;;;;;0.32;0.15;;;;;;;16.29;100.00;98908.88;7396942;19;20121;-59
2022/07/25 07:25:36;;;;;;;0.57;0.25;;;;;;;16.25;100.00;98914.06;7395727;19;20014;-59
2022/07/25 07:28:03;;;;;;;1.77;0.25;;;;;;;16.19;100.00;98913.41;7393783;19;20108;-59
2022/07/25 07:30:30;;;;;;;1.27;0.20;;;;;;;16.19;100.00;98921.06;7395592;19;20070;-59
2022/07/25 07:32:56;;;;;;;0.00;0.00;;;;;;;16.26;100.00;98918.41;7395711;19;20011;-58
2022/07/25 07:35:24;;;;;;;0.32;0.00;;;;;;;16.40;100.00;98921.97;7396192;19;20010;-58
2022/07/25 07:37:53;;;;;;;0.38;0.20;;;;;;;16.47;100.00;98921.34;7396884;19;20324;-58
2022/07/25 07:40:20;;;;;;;0.10;0.10;;;;;;;16.53;100.00;98919.97;7395153;19;20006;-58
2022/07/25 07:42:49;;;;;;;0.28;0.22;;;;;;;16.57;100.00;98923.22;7395022;19;20006;-58
2022/07/25 07:45:24;;;;;;;2.35;0.28;;;;;;;16.54;100.00;98927.13;7393608;19;20459;-58
2022/07/25 07:47:52;;;;;;;0.73;0.22;;;;;;;16.56;100.00;98927.34;7395407;19;20006;-58
2022/07/25 07:50:22;;;;;;;0.28;0.20;;;;;;;16.72;100.00;98927.56;7393885;19;20042;-59
2022/07/25 07:52:49;;;;;;;0.20;0.00;;;;;;;16.80;100.00;98939.66;7392950;19;20017;-58
2022/07/25 07:58:01;;;;;;;1.27;0.32;;;;;;;16.76;100.00;98942.06;7391670;19;20014;-58
2022/07/25 08:00:29;;;;;;;3.70;0.28;;;;;;;16.73;100.00;98945.94;7395061;19;20014;-58
2022/07/25 08:02:57;;;;;;;0.40;0.30;;;;;;;16.67;100.00;98949.59;7392468;19;20091;-58
2022/07/25 08:05:26;;;;;;;0.05;0.00;;;;;;;16.68;100.00;98953.16;7395442;19;20026;-58
2022/07/25 08:07:52;;;;;;;0.40;0.00;;;;;;;16.83;100.00;98949.84;7397039;19;20047;-58
2022/07/25 08:10:29;;;;;;;0.00;0.00;;;;;;;16.93;100.00;98945.28;7395394;19;20007;-58
2022/07/25 08:12:56;;;;;;;0.10;0.00;;;;;;;17.10;100.00;98946.47;7395803;19;20007;-58
2022/07/25 08:15:23;;;;;;;8.88;0.80;;;;;;;17.26;100.00;98942.53;7390841;19;20045;-57
2022/07/25 08:17:52;;;;;;;0.00;0.00;;;;;;;17.37;100.00;98950.00;7391154;19;20022;-58
2022/07/25 08:20:23;;;;;;;0.28;0.20;;;;;;;17.49;100.00;98948.47;7389643;19;20510;-58
2022/07/25 08:22:53;;;;;;;1.65;0.20;;;;;;;17.72;100.00;98941.06;7391223;19;20035;-58
2022/07/25 08:25:20;;;;;;;0.15;0.00;;;;;;;17.77;100.00;98945.06;7389190;19;20467;-58
2022/07/25 08:27:48;;;;;;;0.25;0.03;;;;;;;17.79;100.00;98948.84;7390605;19;20026;-58
2022/07/25 08:30:15;;;;;;;0.50;0.08;;;;;;;17.78;100.00;98940.94;7391327;19;20009;-58
2022/07/25 08:32:52;;;;;;;0.08;0.00;;;;;;;17.70;100.00;98946.47;7391539;19;20031;-58
2022/07/25 08:35:20;;;;;;;0.30;0.30;;;;;;;17.56;100.00;98953.47;7390173;19;20028;-56
2022/07/25 08:37:46;;;;;;;0.35;0.10;;;;;;;17.58;100.00;98947.28;7390825;19;20014;-57
2022/07/25 08:40:14;;;;;;;0.80;0.20;;;;;;;17.58;100.00;98948.03;7390084;19;20010;-57
2022/07/25 08:42:41;;;;;;;0.73;0.05;;;;;;;17.62;100.00;98959.72;7391394;19;20017;-57
2022/07/25 08:45:11;;;;;;;0.57;0.30;;;;;;;17.69;100.00;98961.88;7394619;19;20359;-57
2022/07/25 08:47:38;;;;;;;;;;;;;;;17.78;100.00;98958.56;7395126;19;20014;-57
2022/07/25 08:50:10;;;;;;;0.10;0.00;;;;;;;17.90;100.00;98959.84;7391117;19;19943;-57
2022/07/25 08:52:37;;;;;;;0.63;0.17;;;;;;;17.94;100.00;98965.13;7389640;19;20014;-57
2022/07/25 08:55:05;;;;;;;0.10;0.08;;;;;;;17.83;100.00;98966.16;7393778;19;20656;-57
2022/07/25 08:57:33;;;;;;;0.88;0.10;;;;;;;17.77;100.00;98967.59;7393984;19;20007;-57
2022/07/25 08:59:59;;;;;;;0.28;0.10;;;;;;;17.74;100.00;98972.25;7390166;19;20007;-57
2022/07/25 09:02:27;;;;;;;3.25;0.10;;;;;;;17.72;100.00;98972.03;7390573;19;20026;-56
2022/07/25 09:04:54;;;;;;;0.32;0.05;;;;;;;17.72;100.00;98977.66;7390450;19;20015;-57
2022/07/25 09:07:34;;;;;;;0.40;0.10;;;;;;;17.79;100.00;98982.63;7393990;19;20018;-57
2022/07/25 09:10:16;;;;;;;0.20;0.00;;;;;;;17.85;100.00;98980.44;7394392;19;20010;-57
2022/07/25 09:12:58;;;;;;;3.75;0.28;;;;;;;18.02;100.00;98983.63;7390788;19;20002;-57
2022/07/25 09:15:33;;;;;;;6.78;0.35;;;;;;;17.97;100.00;98976.09;7389834;19;20113;-57
2022/07/25 09:18:03;;;;;;;6.07;0.60;;;;;;;17.87;100.00;98983.47;7389801;19;20018;-57
2022/07/25 09:20:41;;;;;;;10.35;1.80;;;;;;;17.83;100.00;98980.25;7389455;19;20090;-57
2022/07/25 09:23:09;;;;;;;2.38;0.28;;;;;;;17.73;100.00;98982.00;7390824;19;20031;-57
2022/07/25 09:25:36;;;;;;;1.35;0.35;;;;;;;17.60;100.00;98992.53;7391100;19;20459;-57
2022/07/25 09:28:15;;;;;;;1.50;0.20;;;;;;;17.52;100.00;98986.81;7389513;19;20021;-56
2022/07/25 09:30:56;;;;;;;1.98;0.68;;;;;;;17.61;100.00;99000.44;7389472;19;20011;-57
2022/07/25 09:33:23;;;;;;;;;;;;;;;17.57;100.00;99011.28;7392521;19;20027;-57
2022/07/25 09:35:50;;;;;;;1.23;0.20;;;;;;;17.47;100.00;99018.63;7390388;19;19919;-57
2022/07/25 09:38:17;;;;;;;6.85;0.20;;;;;;;17.44;100.00;99019.72;7390093;19;20014;-57
2022/07/25 09:40:54;;;;;;;3.08;0.88;;;;;;;17.59;100.00;99024.81;7391144;19;20467;-58
2022/07/25 09:43:20;;;;;;;5.15;0.40;;;;;;;17.69;100.00;99023.06;7392356;19;20003;-58
2022/07/25 09:45:50;;;;;;;2.13;0.45;;;;;;;17.66;100.00;99024.91;7390282;19;20011;-58
2022/07/25 09:48:21;;;;;;;1.38;0.38;;;;;;;17.70;100.00;99041.47;7389037;19;20021;-58
2022/07/25 09:50:48;;;;;;;;;;;;;;;18.06;100.00;99037.59;7388004;19;20340;-58
2022/07/25 09:53:14;;;;;;;0.47;0.20;;;;;;;18.34;100.00;99041.81;7386963;19;19919;-58
2022/07/25 09:55:41;;;;;;;8.95;2.38;;;;;;;18.73;100.00;99039.56;7388086;19;20011;-58
2022/07/25 09:58:07;;;;;;;0.93;0.38;;;;;;;18.92;100.00;99042.94;7387409;19;20018;-58
2022/07/25 10:00:33;;;;;;;3.30;1.33;;;;;;;18.95;100.00;99038.25;7390227;19;20017;-57
2022/07/25 10:03:44;;;;;;;0.47;0.25;;;;;;;18.81;100.00;99036.81;7386830;19;20019;-58
2022/07/25 10:06:15;;;;;;;;;;;;;;;18.89;100.00;99037.63;7390567;19;20015;-58
2022/07/25 10:08:42;;;;;;;10.02;3.15;;;;;;;18.91;100.00;99035.03;7387068;19;19922;-57
2022/07/25 10:11:24;;;;;;;18.92;4.47;;;;;;;19.34;100.00;99034.38;7387410;19;20015;-57
2022/07/25 10:13:52;;;;;;;1.73;0.70;;;;;;;19.42;100.00;99038.03;7395005;19;20021;-58
2022/07/25 10:16:26;;;;;;;3.72;0.60;;;;;;;19.60;100.00;99034.91;7398083;19;20015;-58
2022/07/25 10:18:56;;;;;;;2.17;0.20;;;;;;;19.41;100.00;99031.63;7396002;19;20036;-57
2022/07/25 10:21:24;;;;;;;5.00;0.77;;;;;;;19.25;100.00;99026.44;7395742;19;20471;-58
2022/07/25 10:24:01;;;;;;;3.08;1.00;;;;;;;19.12;100.00;99038.56;7394742;19;20017;-58
2022/07/25 10:26:28;;;;;;;3.65;0.73;;;;;;;19.22;100.00;99044.47;7397346;19;20019;-57
2022/07/25 10:28:56;;;;;;;6.47;1.50;;;;;;;19.37;100.00;99045.34;7393905;19;20057;-57
2022/07/25 10:31:25;;;;;;;5.80;1.35;;;;;;;19.53;100.00;99046.94;7394439;19;20028;-58
2022/07/25 10:33:57;;;;;;;7.03;1.75;;;;;;;19.71;100.00;99052.88;7395637;19;20442;-57
2022/07/25 10:36:28;;;;;;;1.80;0.73;;;;;;;19.88;100.00;99045.38;7396748;19;20014;-57
2022/07/25 10:38:56;;;;;;;3.10;0.52;;;;;;;19.67;100.00;99053.97;7395403;19;20062;-57
2022/07/25 10:41:28;;;;;;;2.55;0.20;;;;;;;19.36;100.00;99065.69;7397109;19;20018;-57
2022/07/25 10:43:58;;;;;;;4.50;0.80;;;;;;;19.03;100.00;99075.75;7393909;19;20011;-57
2022/07/25 10:46:26;;;;;;;5.90;0.73;;;;;;;18.81;100.00;99084.78;7395799;19;20006;-57
2022/07/25 10:49:01;;;;;;;0.90;0.45;;;;;;;18.59;100.00;99088.16;7394665;19;20018;-57
2022/07/25 10:51:30;;;;;;;14.57;2.53;;;;;;;18.55;100.00;99096.19;7393087;19;20475;-58
2022/07/25 10:53:57;;;;;;;1.40;0.70;;;;;;;18.53;100.00;99102.41;7394046;19;20011;-58
2022/07/25 10:56:28;;;;;;;0.68;0.47;;;;;;;18.42;100.00;99104.69;7395663;19;20018;-57
2022/07/25 10:59:00;;;;;;;1.48;0.45;;;;;;;18.36;100.00;99115.34;7394199;19;20015;-57
2022/07/25 11:01:32;;;;;;;1.23;0.20;;;;;;;18.32;100.00;99104.38;7397282;19;20053;-58
2022/07/25 11:04:04;;;;;;;2.25;0.40;;;;;;;18.26;100.00;99119.94;7392865;19;20333;-58
2022/07/25 11:06:41;;;;;;;2.17;0.15;;;;;;;18.23;100.00;99126.66;7396612;19;20011;-59
2022/07/25 11:09:18;;;;;;;2.17;0.30;;;;;;;18.09;100.00;99129.50;7394416;19;20048;-61
2022/07/25 11:11:49;;;;;;;0.40;0.32;;;;;;;18.05;100.00;99129.06;7395759;19;20014;-61
2022/07/25 11:14:40;;;;;;;0.80;0.40;;;;;;;18.13;100.00;99127.09;7392235;19;20471;-62
2022/07/25 11:17:18;;;;;;;1.35;0.40;;;;;;;18.12;100.00;99133.28;7397184;19;20015;-62
2022/07/25 11:19:55;;;;;;;0.93;0.32;;;;;;;18.26;100.00;99128.38;7392566;19;20038;-62
2022/07/25 11:22:22;;;;;;;0.65;0.40;;;;;;;18.42;100.00;99127.25;7393949;19;20356;-62
2022/07/25 11:24:48;;;;;;;2.97;0.85;;;;;;;18.54;100.00;99128.50;7392919;19;20018;-62
2022/07/25 11:27:32;;;;;;;2.47;0.30;;;;;;;18.46;100.00;99124.88;7397238;19;20090;-59
2022/07/25 11:30:09;;;;;;;0.55;0.15;;;;;;;18.58;100.00;99128.97;7390887;19;20486;-60
2022/07/25 11:32:40;;;;;;;3.92;0.52;;;;;;;18.65;100.00;99128.25;7391290;19;20039;-60